sensor_id;sensor_type;location;lat;lon;timestamp;P1;durP1;ratioP1;P2;durP2;ratioP2
77280;SDS011;66339;47.262;17.144;2023-11-19T00:01:21;7.72;;;3.45;;
77280;SDS011;66339;47.262;17.144;2023-11-19T00:03:48;4.62;;;2.50;;
77280;SDS011;66339;47.262;17.144;2023-11-19T00:06:17;5.12;;;2.87;;
77280;SDS011;66339;47.262;17.144;2023-11-19T00:08:44;3.65;;;2.65;;
77280;SDS011;66339;47.262;17.144;2023-11-19T00:11:11;5.32;;;2.87;;
77280;SDS011;66339;47.262;17.144;2023-11-19T00:13:39;3.75;;;2.50;;
77280;SDS011;66339;47.262;17.144;2023-11-19T00:16:07;4.53;;;2.90;;
77280;SDS011;66339;47.262;17.144;2023-11-19T00:18:36;4.05;;;2.65;;
77280;SDS011;66339;47.262;17.144;2023-11-19T00:21:05;5.05;;;2.90;;
77280;SDS011;66339;47.262;17.144;2023-11-19T00:23:33;4.95;;;2.80;;
77280;SDS011;66339;47.262;17.144;2023-11-19T00:26:01;4.07;;;2.65;;
77280;SDS011;66339;47.262;17.144;2023-11-19T00:28:32;3.85;;;2.75;;
77280;SDS011;66339;47.262;17.144;2023-11-19T00:31:00;4.18;;;2.78;;
77280;SDS011;66339;47.262;17.144;2023-11-19T00:33:27;5.07;;;2.80;;
77280;SDS011;66339;47.262;17.144;2023-11-19T00:35:55;4.07;;;2.60;;
77280;SDS011;66339;47.262;17.144;2023-11-19T00:38:25;3.87;;;2.85;;
77280;SDS011;66339;47.262;17.144;2023-11-19T00:40:55;8.57;;;2.85;;
77280;SDS011;66339;47.262;17.144;2023-11-19T00:43:25;10.65;;;3.20;;
77280;SDS011;66339;47.262;17.144;2023-11-19T00:45:59;23.05;;;3.10;;
77280;SDS011;66339;47.262;17.144;2023-11-19T00:48:30;5.12;;;2.70;;
77280;SDS011;66339;47.262;17.144;2023-11-19T00:50:58;4.28;;;2.55;;
77280;SDS011;66339;47.262;17.144;2023-11-19T00:53:28;5.32;;;2.90;;
77280;SDS011;66339;47.262;17.144;2023-11-19T00:55:58;7.18;;;2.78;;
77280;SDS011;66339;47.262;17.144;2023-11-19T00:58:29;4.70;;;2.40;;
77280;SDS011;66339;47.262;17.144;2023-11-19T01:01:01;3.40;;;2.33;;
77280;SDS011;66339;47.262;17.144;2023-11-19T01:03:28;6.78;;;2.75;;
77280;SDS011;66339;47.262;17.144;2023-11-19T01:05:56;8.63;;;2.55;;
77280;SDS011;66339;47.262;17.144;2023-11-19T01:08:23;6.00;;;2.65;;
77280;SDS011;66339;47.262;17.144;2023-11-19T01:10:51;5.28;;;2.60;;
77280;SDS011;66339;47.262;17.144;2023-11-19T01:13:18;3.58;;;2.35;;
77280;SDS011;66339;47.262;17.144;2023-11-19T01:18:28;4.72;;;2.70;;
77280;SDS011;66339;47.262;17.144;2023-11-19T01:20:56;4.47;;;2.42;;
77280;SDS011;66339;47.262;17.144;2023-11-19T01:23:25;7.28;;;2.70;;
77280;SDS011;66339;47.262;17.144;2023-11-19T01:25:53;18.50;;;3.00;;
77280;SDS011;66339;47.262;17.144;2023-11-19T01:28:20;4.97;;;2.42;;
77280;SDS011;66339;47.262;17.144;2023-11-19T01:30:50;4.93;;;2.75;;
77280;SDS011;66339;47.262;17.144;2023-11-19T01:33:21;3.45;;;2.30;;
77280;SDS011;66339;47.262;17.144;2023-11-19T01:35:53;3.12;;;2.17;;
77280;SDS011;66339;47.262;17.144;2023-11-19T01:38:22;4.68;;;2.60;;
77280;SDS011;66339;47.262;17.144;2023-11-19T01:40:49;3.55;;;2.35;;
77280;SDS011;66339;47.262;17.144;2023-11-19T01:46:18;4.03;;;2.33;;
77280;SDS011;66339;47.262;17.144;2023-11-19T01:48:47;3.95;;;2.47;;
77280;SDS011;66339;47.262;17.144;2023-11-19T01:51:16;4.90;;;2.22;;
77280;SDS011;66339;47.262;17.144;2023-11-19T01:53:45;3.45;;;2.20;;
77280;SDS011;66339;47.262;17.144;2023-11-19T01:56:13;4.00;;;2.10;;
77280;SDS011;66339;47.262;17.144;2023-11-19T01:58:43;3.87;;;2.42;;
77280;SDS011;66339;47.262;17.144;2023-11-19T02:01:13;3.40;;;1.98;;
77280;SDS011;66339;47.262;17.144;2023-11-19T02:03:41;3.53;;;2.33;;
77280;SDS011;66339;47.262;17.144;2023-11-19T02:17:05;3.67;;;2.00;;
77280;SDS011;66339;47.262;17.144;2023-11-19T02:46:36;2.55;;;1.85;;
77280;SDS011;66339;47.262;17.144;2023-11-19T02:59:58;3.17;;;1.80;;
77280;SDS011;66339;47.262;17.144;2023-11-19T03:02:31;3.28;;;1.87;;
77280;SDS011;66339;47.262;17.144;2023-11-19T03:07:37;3.85;;;1.90;;
77280;SDS011;66339;47.262;17.144;2023-11-19T03:10:10;1.77;;;1.60;;
77280;SDS011;66339;47.262;17.144;2023-11-19T03:12:38;3.00;;;1.80;;
77280;SDS011;66339;47.262;17.144;2023-11-19T03:17:45;3.00;;;1.90;;
77280;SDS011;66339;47.262;17.144;2023-11-19T03:20:13;3.00;;;1.80;;
77280;SDS011;66339;47.262;17.144;2023-11-19T03:22:50;3.42;;;1.77;;
77280;SDS011;66339;47.262;17.144;2023-11-19T03:28:00;2.58;;;1.75;;
77280;SDS011;66339;47.262;17.144;2023-11-19T03:30:31;3.05;;;1.80;;
77280;SDS011;66339;47.262;17.144;2023-11-19T03:33:19;2.45;;;1.80;;
77280;SDS011;66339;47.262;17.144;2023-11-19T03:35:46;2.83;;;1.80;;
77280;SDS011;66339;47.262;17.144;2023-11-19T03:38:15;3.08;;;1.87;;
77280;SDS011;66339;47.262;17.144;2023-11-19T03:40:42;2.17;;;1.60;;
77280;SDS011;66339;47.262;17.144;2023-11-19T03:43:10;2.58;;;1.87;;
77280;SDS011;66339;47.262;17.144;2023-11-19T03:45:38;2.90;;;1.83;;
77280;SDS011;66339;47.262;17.144;2023-11-19T03:48:08;2.80;;;1.80;;
77280;SDS011;66339;47.262;17.144;2023-11-19T03:55:42;1.67;;;1.50;;
77280;SDS011;66339;47.262;17.144;2023-11-19T04:03:30;2.30;;;1.45;;
77280;SDS011;66339;47.262;17.144;2023-11-19T04:06:01;4.85;;;1.83;;
77280;SDS011;66339;47.262;17.144;2023-11-19T04:08:28;3.65;;;1.67;;
77280;SDS011;66339;47.262;17.144;2023-11-19T04:10:55;2.35;;;1.80;;
77280;SDS011;66339;47.262;17.144;2023-11-19T04:13:22;2.50;;;1.87;;
77280;SDS011;66339;47.262;17.144;2023-11-19T04:15:49;2.00;;;1.52;;
77280;SDS011;66339;47.262;17.144;2023-11-19T04:18:17;2.58;;;1.70;;
77280;SDS011;66339;47.262;17.144;2023-11-19T04:20:44;2.75;;;1.77;;
77280;SDS011;66339;47.262;17.144;2023-11-19T04:23:11;2.55;;;1.55;;
77280;SDS011;66339;47.262;17.144;2023-11-19T04:25:37;2.37;;;1.70;;
77280;SDS011;66339;47.262;17.144;2023-11-19T04:28:05;2.25;;;1.58;;
77280;SDS011;66339;47.262;17.144;2023-11-19T04:30:35;2.50;;;1.58;;
77280;SDS011;66339;47.262;17.144;2023-11-19T04:33:02;2.28;;;1.60;;
77280;SDS011;66339;47.262;17.144;2023-11-19T04:35:29;1.98;;;1.50;;
77280;SDS011;66339;47.262;17.144;2023-11-19T04:40:31;2.28;;;1.60;;
77280;SDS011;66339;47.262;17.144;2023-11-19T04:43:09;4.85;;;1.60;;
77280;SDS011;66339;47.262;17.144;2023-11-19T04:45:39;2.25;;;1.55;;
77280;SDS011;66339;47.262;17.144;2023-11-19T04:48:18;2.40;;;1.58;;
77280;SDS011;66339;47.262;17.144;2023-11-19T05:01:46;1.80;;;1.53;;
77280;SDS011;66339;47.262;17.144;2023-11-19T05:04:14;2.37;;;1.73;;
77280;SDS011;66339;47.262;17.144;2023-11-19T05:06:49;1.80;;;1.48;;
77280;SDS011;66339;47.262;17.144;2023-11-19T05:09:16;2.75;;;1.60;;
77280;SDS011;66339;47.262;17.144;2023-11-19T05:11:43;1.92;;;1.58;;
77280;SDS011;66339;47.262;17.144;2023-11-19T05:14:13;2.42;;;1.83;;
77280;SDS011;66339;47.262;17.144;2023-11-19T05:16:40;2.45;;;1.70;;
77280;SDS011;66339;47.262;17.144;2023-11-19T05:19:10;2.53;;;1.50;;
77280;SDS011;66339;47.262;17.144;2023-11-19T05:21:37;2.37;;;1.75;;
77280;SDS011;66339;47.262;17.144;2023-11-19T05:24:04;2.30;;;1.40;;
77280;SDS011;66339;47.262;17.144;2023-11-19T05:26:35;2.28;;;1.40;;
77280;SDS011;66339;47.262;17.144;2023-11-19T05:29:02;3.20;;;1.52;;
77280;SDS011;66339;47.262;17.144;2023-11-19T05:31:32;1.55;;;1.30;;
77280;SDS011;66339;47.262;17.144;2023-11-19T05:34:03;1.73;;;1.40;;
77280;SDS011;66339;47.262;17.144;2023-11-19T05:36:31;2.20;;;1.60;;
77280;SDS011;66339;47.262;17.144;2023-11-19T05:38:58;3.25;;;1.60;;
77280;SDS011;66339;47.262;17.144;2023-11-19T05:41:25;3.20;;;1.50;;
77280;SDS011;66339;47.262;17.144;2023-11-19T05:43:54;2.87;;;1.45;;
77280;SDS011;66339;47.262;17.144;2023-11-19T05:49:16;1.83;;;1.33;;
77280;SDS011;66339;47.262;17.144;2023-11-19T05:51:43;2.83;;;1.50;;
77280;SDS011;66339;47.262;17.144;2023-11-19T05:54:10;6.45;;;1.55;;
77280;SDS011;66339;47.262;17.144;2023-11-19T05:56:37;4.45;;;1.30;;
77280;SDS011;66339;47.262;17.144;2023-11-19T05:59:05;6.62;;;2.20;;
77280;SDS011;66339;47.262;17.144;2023-11-19T06:01:35;8.85;;;1.70;;
77280;SDS011;66339;47.262;17.144;2023-11-19T06:04:02;3.85;;;1.92;;
77280;SDS011;66339;47.262;17.144;2023-11-19T06:09:07;6.85;;;1.90;;
77280;SDS011;66339;47.262;17.144;2023-11-19T06:14:15;3.90;;;1.85;;
77280;SDS011;66339;47.262;17.144;2023-11-19T06:16:44;4.93;;;1.92;;
77280;SDS011;66339;47.262;17.144;2023-11-19T06:19:14;5.93;;;1.85;;
77280;SDS011;66339;47.262;17.144;2023-11-19T06:21:42;9.80;;;2.20;;
77280;SDS011;66339;47.262;17.144;2023-11-19T06:24:09;4.37;;;1.73;;
77280;SDS011;66339;47.262;17.144;2023-11-19T06:26:36;7.62;;;2.10;;
77280;SDS011;66339;47.262;17.144;2023-11-19T06:29:03;5.80;;;1.90;;
77280;SDS011;66339;47.262;17.144;2023-11-19T06:31:30;11.43;;;2.28;;
77280;SDS011;66339;47.262;17.144;2023-11-19T06:33:56;9.68;;;2.33;;
77280;SDS011;66339;47.262;17.144;2023-11-19T06:36:23;3.72;;;2.03;;
77280;SDS011;66339;47.262;17.144;2023-11-19T06:38:50;6.85;;;2.00;;
77280;SDS011;66339;47.262;17.144;2023-11-19T06:41:17;5.45;;;2.08;;
77280;SDS011;66339;47.262;17.144;2023-11-19T06:43:44;10.32;;;2.33;;
77280;SDS011;66339;47.262;17.144;2023-11-19T06:46:17;7.85;;;2.17;;
77280;SDS011;66339;47.262;17.144;2023-11-19T06:48:44;7.60;;;2.50;;
77280;SDS011;66339;47.262;17.144;2023-11-19T06:51:12;5.28;;;2.17;;
77280;SDS011;66339;47.262;17.144;2023-11-19T06:53:39;8.82;;;2.78;;
77280;SDS011;66339;47.262;17.144;2023-11-19T06:56:16;6.62;;;2.80;;
77280;SDS011;66339;47.262;17.144;2023-11-19T06:58:54;9.63;;;2.37;;
77280;SDS011;66339;47.262;17.144;2023-11-19T07:01:20;17.17;;;2.78;;
77280;SDS011;66339;47.262;17.144;2023-11-19T07:03:47;8.00;;;2.72;;
77280;SDS011;66339;47.262;17.144;2023-11-19T07:06:18;10.13;;;2.65;;
77280;SDS011;66339;47.262;17.144;2023-11-19T07:08:45;6.32;;;2.30;;
77280;SDS011;66339;47.262;17.144;2023-11-19T07:11:12;12.07;;;3.12;;
77280;SDS011;66339;47.262;17.144;2023-11-19T07:13:40;9.02;;;2.62;;
77280;SDS011;66339;47.262;17.144;2023-11-19T07:16:07;7.37;;;2.80;;
77280;SDS011;66339;47.262;17.144;2023-11-19T07:18:34;10.70;;;3.05;;
77280;SDS011;66339;47.262;17.144;2023-11-19T07:21:01;8.85;;;3.10;;
77280;SDS011;66339;47.262;17.144;2023-11-19T07:23:31;7.57;;;3.53;;
77280;SDS011;66339;47.262;17.144;2023-11-19T07:25:58;9.70;;;3.05;;
77280;SDS011;66339;47.262;17.144;2023-11-19T07:28:25;5.75;;;3.20;;
77280;SDS011;66339;47.262;17.144;2023-11-19T07:30:52;9.25;;;2.75;;
77280;SDS011;66339;47.262;17.144;2023-11-19T07:33:19;8.25;;;3.17;;
77280;SDS011;66339;47.262;17.144;2023-11-19T07:35:46;16.55;;;3.15;;
77280;SDS011;66339;47.262;17.144;2023-11-19T07:38:12;14.23;;;3.60;;
77280;SDS011;66339;47.262;17.144;2023-11-19T07:40:39;11.45;;;3.72;;
77280;SDS011;66339;47.262;17.144;2023-11-19T07:43:06;12.23;;;3.47;;
77280;SDS011;66339;47.262;17.144;2023-11-19T07:45:33;22.48;;;4.15;;
77280;SDS011;66339;47.262;17.144;2023-11-19T07:48:00;13.75;;;4.32;;
77280;SDS011;66339;47.262;17.144;2023-11-19T07:50:27;18.17;;;3.85;;
77280;SDS011;66339;47.262;17.144;2023-11-19T07:52:53;11.18;;;3.35;;
77280;SDS011;66339;47.262;17.144;2023-11-19T07:55:20;15.40;;;3.62;;
77280;SDS011;66339;47.262;17.144;2023-11-19T07:57:50;12.07;;;3.55;;
77280;SDS011;66339;47.262;17.144;2023-11-19T08:00:21;13.77;;;3.92;;
77280;SDS011;66339;47.262;17.144;2023-11-19T08:02:48;19.20;;;3.75;;
77280;SDS011;66339;47.262;17.144;2023-11-19T08:05:16;16.95;;;4.05;;
77280;SDS011;66339;47.262;17.144;2023-11-19T08:07:44;12.30;;;3.55;;
77280;SDS011;66339;47.262;17.144;2023-11-19T08:10:11;14.45;;;4.07;;
77280;SDS011;66339;47.262;17.144;2023-11-19T08:12:40;15.23;;;3.95;;
77280;SDS011;66339;47.262;17.144;2023-11-19T08:15:07;12.82;;;3.53;;
77280;SDS011;66339;47.262;17.144;2023-11-19T08:17:34;11.15;;;3.95;;
77280;SDS011;66339;47.262;17.144;2023-11-19T08:20:01;11.50;;;3.28;;
77280;SDS011;66339;47.262;17.144;2023-11-19T08:22:27;11.40;;;4.22;;
77280;SDS011;66339;47.262;17.144;2023-11-19T08:24:54;15.80;;;3.50;;
77280;SDS011;66339;47.262;17.144;2023-11-19T08:27:21;14.00;;;3.40;;
77280;SDS011;66339;47.262;17.144;2023-11-19T08:29:49;7.18;;;3.20;;
77280;SDS011;66339;47.262;17.144;2023-11-19T08:32:18;8.82;;;3.78;;
77280;SDS011;66339;47.262;17.144;2023-11-19T08:34:45;9.90;;;3.45;;
77280;SDS011;66339;47.262;17.144;2023-11-19T08:37:12;12.68;;;3.20;;
77280;SDS011;66339;47.262;17.144;2023-11-19T08:39:39;8.07;;;4.03;;
77280;SDS011;66339;47.262;17.144;2023-11-19T08:42:09;10.40;;;3.80;;
77280;SDS011;66339;47.262;17.144;2023-11-19T08:44:39;7.45;;;3.03;;
77280;SDS011;66339;47.262;17.144;2023-11-19T08:47:06;7.75;;;3.17;;
77280;SDS011;66339;47.262;17.144;2023-11-19T08:49:33;11.60;;;3.50;;
77280;SDS011;66339;47.262;17.144;2023-11-19T08:52:00;9.00;;;3.35;;
77280;SDS011;66339;47.262;17.144;2023-11-19T08:54:27;6.55;;;3.20;;
77280;SDS011;66339;47.262;17.144;2023-11-19T08:56:54;8.27;;;3.50;;
77280;SDS011;66339;47.262;17.144;2023-11-19T08:59:21;7.72;;;3.17;;
77280;SDS011;66339;47.262;17.144;2023-11-19T09:01:48;6.82;;;3.20;;
77280;SDS011;66339;47.262;17.144;2023-11-19T09:04:18;6.97;;;3.15;;
77280;SDS011;66339;47.262;17.144;2023-11-19T09:06:45;7.72;;;2.87;;
77280;SDS011;66339;47.262;17.144;2023-11-19T09:09:11;11.18;;;3.42;;
77280;SDS011;66339;47.262;17.144;2023-11-19T09:11:38;10.88;;;3.70;;
77280;SDS011;66339;47.262;17.144;2023-11-19T09:14:06;6.65;;;3.17;;
77280;SDS011;66339;47.262;17.144;2023-11-19T09:16:33;8.02;;;3.12;;
77280;SDS011;66339;47.262;17.144;2023-11-19T09:19:00;9.80;;;3.72;;
77280;SDS011;66339;47.262;17.144;2023-11-19T09:21:30;6.68;;;3.08;;
77280;SDS011;66339;47.262;17.144;2023-11-19T09:23:57;7.43;;;3.20;;
77280;SDS011;66339;47.262;17.144;2023-11-19T09:26:24;9.23;;;3.53;;
77280;SDS011;66339;47.262;17.144;2023-11-19T09:28:54;6.70;;;2.90;;
77280;SDS011;66339;47.262;17.144;2023-11-19T09:31:21;6.55;;;3.00;;
77280;SDS011;66339;47.262;17.144;2023-11-19T09:33:48;5.70;;;3.05;;
77280;SDS011;66339;47.262;17.144;2023-11-19T09:36:15;6.80;;;3.17;;
77280;SDS011;66339;47.262;17.144;2023-11-19T09:38:45;8.70;;;3.10;;
77280;SDS011;66339;47.262;17.144;2023-11-19T09:41:14;12.33;;;3.47;;
77280;SDS011;66339;47.262;17.144;2023-11-19T09:43:42;5.05;;;2.90;;
77280;SDS011;66339;47.262;17.144;2023-11-19T09:46:10;5.22;;;3.10;;
77280;SDS011;66339;47.262;17.144;2023-11-19T09:48:42;5.68;;;3.00;;
77280;SDS011;66339;47.262;17.144;2023-11-19T09:51:12;7.05;;;3.45;;
77280;SDS011;66339;47.262;17.144;2023-11-19T09:53:39;5.05;;;2.80;;
77280;SDS011;66339;47.262;17.144;2023-11-19T09:56:06;7.05;;;3.30;;
77280;SDS011;66339;47.262;17.144;2023-11-19T09:58:41;6.55;;;3.15;;
77280;SDS011;66339;47.262;17.144;2023-11-19T10:01:08;6.12;;;2.72;;
77280;SDS011;66339;47.262;17.144;2023-11-19T10:03:38;10.07;;;2.80;;
77280;SDS011;66339;47.262;17.144;2023-11-19T10:06:07;6.03;;;3.05;;
77280;SDS011;66339;47.262;17.144;2023-11-19T10:08:40;4.90;;;2.67;;
77280;SDS011;66339;47.262;17.144;2023-11-19T10:11:10;3.85;;;2.37;;
77280;SDS011;66339;47.262;17.144;2023-11-19T10:13:37;4.43;;;2.65;;
77280;SDS011;66339;47.262;17.144;2023-11-19T10:16:08;5.45;;;2.37;;
77280;SDS011;66339;47.262;17.144;2023-11-19T10:18:48;4.90;;;2.53;;
77280;SDS011;66339;47.262;17.144;2023-11-19T10:21:18;6.82;;;2.80;;
77280;SDS011;66339;47.262;17.144;2023-11-19T10:26:16;7.37;;;2.65;;
77280;SDS011;66339;47.262;17.144;2023-11-19T10:28:43;4.75;;;2.87;;
77280;SDS011;66339;47.262;17.144;2023-11-19T10:31:16;4.57;;;2.80;;
77280;SDS011;66339;47.262;17.144;2023-11-19T10:33:44;4.62;;;2.62;;
77280;SDS011;66339;47.262;17.144;2023-11-19T10:36:12;5.45;;;3.12;;
77280;SDS011;66339;47.262;17.144;2023-11-19T10:38:51;3.42;;;2.33;;
77280;SDS011;66339;47.262;17.144;2023-11-19T10:41:28;5.05;;;2.70;;
77280;SDS011;66339;47.262;17.144;2023-11-19T10:43:56;5.22;;;2.40;;
77280;SDS011;66339;47.262;17.144;2023-11-19T10:46:24;4.15;;;2.62;;
77280;SDS011;66339;47.262;17.144;2023-11-19T10:49:04;4.87;;;2.60;;
77280;SDS011;66339;47.262;17.144;2023-11-19T10:51:31;4.72;;;2.35;;
77280;SDS011;66339;47.262;17.144;2023-11-19T10:54:04;3.92;;;2.47;;
77280;SDS011;66339;47.262;17.144;2023-11-19T10:56:32;5.87;;;2.67;;
77280;SDS011;66339;47.262;17.144;2023-11-19T10:59:00;6.18;;;2.92;;
77280;SDS011;66339;47.262;17.144;2023-11-19T11:01:32;6.37;;;2.37;;
77280;SDS011;66339;47.262;17.144;2023-11-19T11:04:28;4.53;;;2.72;;
77280;SDS011;66339;47.262;17.144;2023-11-19T11:06:58;4.90;;;2.67;;
77280;SDS011;66339;47.262;17.144;2023-11-19T11:09:29;4.82;;;2.42;;
77280;SDS011;66339;47.262;17.144;2023-11-19T11:11:58;4.32;;;2.50;;
77280;SDS011;66339;47.262;17.144;2023-11-19T11:14:26;3.47;;;2.30;;
77280;SDS011;66339;47.262;17.144;2023-11-19T11:16:57;4.35;;;2.50;;
77280;SDS011;66339;47.262;17.144;2023-11-19T11:19:28;4.35;;;2.85;;
77280;SDS011;66339;47.262;17.144;2023-11-19T11:21:58;4.78;;;2.47;;
77280;SDS011;66339;47.262;17.144;2023-11-19T11:35:54;4.10;;;2.40;;
77280;SDS011;66339;47.262;17.144;2023-11-19T11:38:34;4.75;;;2.60;;
77280;SDS011;66339;47.262;17.144;2023-11-19T11:43:55;3.25;;;2.22;;
77280;SDS011;66339;47.262;17.144;2023-11-19T11:49:02;3.35;;;2.47;;
77280;SDS011;66339;47.262;17.144;2023-11-19T11:59:46;3.80;;;2.35;;
77280;SDS011;66339;47.262;17.144;2023-11-19T12:02:17;4.18;;;2.40;;
77280;SDS011;66339;47.262;17.144;2023-11-19T12:04:49;3.37;;;2.30;;
77280;SDS011;66339;47.262;17.144;2023-11-19T12:07:20;2.95;;;2.60;;
77280;SDS011;66339;47.262;17.144;2023-11-19T12:09:55;5.30;;;3.08;;
77280;SDS011;66339;47.262;17.144;2023-11-19T12:12:36;4.00;;;2.78;;
77280;SDS011;66339;47.262;17.144;2023-11-19T12:15:05;3.90;;;2.83;;
77280;SDS011;66339;47.262;17.144;2023-11-19T12:20:01;4.55;;;2.92;;
77280;SDS011;66339;47.262;17.144;2023-11-19T12:22:31;4.93;;;2.83;;
77280;SDS011;66339;47.262;17.144;2023-11-19T12:24:58;4.18;;;2.70;;
77280;SDS011;66339;47.262;17.144;2023-11-19T12:27:26;4.72;;;3.10;;
77280;SDS011;66339;47.262;17.144;2023-11-19T12:29:54;3.97;;;2.80;;
77280;SDS011;66339;47.262;17.144;2023-11-19T12:32:21;4.30;;;3.15;;
77280;SDS011;66339;47.262;17.144;2023-11-19T12:34:48;5.05;;;3.25;;
77280;SDS011;66339;47.262;17.144;2023-11-19T12:37:15;5.35;;;3.25;;
77280;SDS011;66339;47.262;17.144;2023-11-19T12:39:42;5.62;;;3.50;;
77280;SDS011;66339;47.262;17.144;2023-11-19T12:42:11;4.43;;;3.05;;
77280;SDS011;66339;47.262;17.144;2023-11-19T12:44:53;4.30;;;2.87;;
77280;SDS011;66339;47.262;17.144;2023-11-19T12:47:23;4.22;;;2.97;;
77280;SDS011;66339;47.262;17.144;2023-11-19T12:49:59;5.43;;;3.40;;
77280;SDS011;66339;47.262;17.144;2023-11-19T12:52:26;4.10;;;3.10;;
77280;SDS011;66339;47.262;17.144;2023-11-19T12:54:53;4.53;;;3.25;;
77280;SDS011;66339;47.262;17.144;2023-11-19T12:57:20;3.62;;;2.72;;
77280;SDS011;66339;47.262;17.144;2023-11-19T12:59:55;4.70;;;3.10;;
77280;SDS011;66339;47.262;17.144;2023-11-19T13:02:22;6.37;;;3.35;;
77280;SDS011;66339;47.262;17.144;2023-11-19T13:04:49;6.25;;;3.60;;
77280;SDS011;66339;47.262;17.144;2023-11-19T13:07:22;4.10;;;3.05;;
77280;SDS011;66339;47.262;17.144;2023-11-19T13:09:49;4.35;;;3.05;;
77280;SDS011;66339;47.262;17.144;2023-11-19T13:12:16;3.92;;;2.80;;
77280;SDS011;66339;47.262;17.144;2023-11-19T13:14:46;4.60;;;3.10;;
77280;SDS011;66339;47.262;17.144;2023-11-19T13:17:13;5.20;;;3.40;;
77280;SDS011;66339;47.262;17.144;2023-11-19T13:19:41;5.20;;;3.40;;
77280;SDS011;66339;47.262;17.144;2023-11-19T13:22:08;3.55;;;3.05;;
77280;SDS011;66339;47.262;17.144;2023-11-19T13:24:35;3.67;;;2.95;;
77280;SDS011;66339;47.262;17.144;2023-11-19T13:27:07;5.15;;;3.42;;
77280;SDS011;66339;47.262;17.144;2023-11-19T13:29:34;5.10;;;3.20;;
77280;SDS011;66339;47.262;17.144;2023-11-19T13:32:02;4.30;;;3.08;;
77280;SDS011;66339;47.262;17.144;2023-11-19T13:34:29;5.82;;;3.35;;
77280;SDS011;66339;47.262;17.144;2023-11-19T13:36:58;4.85;;;3.42;;
77280;SDS011;66339;47.262;17.144;2023-11-19T13:39:31;5.40;;;3.50;;
77280;SDS011;66339;47.262;17.144;2023-11-19T13:41:58;4.80;;;3.20;;
77280;SDS011;66339;47.262;17.144;2023-11-19T13:44:28;4.60;;;3.45;;
77280;SDS011;66339;47.262;17.144;2023-11-19T13:46:55;5.15;;;2.70;;
77280;SDS011;66339;47.262;17.144;2023-11-19T13:49:22;4.93;;;3.42;;
77280;SDS011;66339;47.262;17.144;2023-11-19T13:51:52;5.97;;;3.40;;
77280;SDS011;66339;47.262;17.144;2023-11-19T13:54:22;4.03;;;3.25;;
77280;SDS011;66339;47.262;17.144;2023-11-19T13:56:49;4.40;;;3.12;;
77280;SDS011;66339;47.262;17.144;2023-11-19T13:59:15;5.35;;;3.45;;
77280;SDS011;66339;47.262;17.144;2023-11-19T14:01:42;5.18;;;3.40;;
77280;SDS011;66339;47.262;17.144;2023-11-19T14:04:09;4.20;;;3.22;;
77280;SDS011;66339;47.262;17.144;2023-11-19T14:06:36;4.65;;;3.22;;
77280;SDS011;66339;47.262;17.144;2023-11-19T14:09:06;4.50;;;3.47;;
77280;SDS011;66339;47.262;17.144;2023-11-19T14:11:33;4.40;;;3.20;;
77280;SDS011;66339;47.262;17.144;2023-11-19T14:14:00;3.87;;;3.08;;
77280;SDS011;66339;47.262;17.144;2023-11-19T14:16:27;3.95;;;3.00;;
77280;SDS011;66339;47.262;17.144;2023-11-19T14:18:54;4.72;;;3.40;;
77280;SDS011;66339;47.262;17.144;2023-11-19T14:21:21;4.60;;;3.25;;
77280;SDS011;66339;47.262;17.144;2023-11-19T14:23:48;5.97;;;3.22;;
77280;SDS011;66339;47.262;17.144;2023-11-19T14:26:15;5.53;;;3.67;;
77280;SDS011;66339;47.262;17.144;2023-11-19T14:28:42;3.92;;;3.12;;
77280;SDS011;66339;47.262;17.144;2023-11-19T14:31:12;4.70;;;3.33;;
77280;SDS011;66339;47.262;17.144;2023-11-19T14:33:39;3.35;;;2.92;;
77280;SDS011;66339;47.262;17.144;2023-11-19T14:36:06;4.70;;;3.42;;
77280;SDS011;66339;47.262;17.144;2023-11-19T14:38:33;4.93;;;3.45;;
77280;SDS011;66339;47.262;17.144;2023-11-19T14:41:00;3.53;;;2.92;;
77280;SDS011;66339;47.262;17.144;2023-11-19T14:43:27;4.90;;;3.62;;
77280;SDS011;66339;47.262;17.144;2023-11-19T14:45:54;4.97;;;3.58;;
77280;SDS011;66339;47.262;17.144;2023-11-19T14:48:23;4.72;;;3.17;;
77280;SDS011;66339;47.262;17.144;2023-11-19T14:50:55;4.28;;;3.03;;
77280;SDS011;66339;47.262;17.144;2023-11-19T14:53:22;4.72;;;3.37;;
77280;SDS011;66339;47.262;17.144;2023-11-19T14:55:49;6.28;;;3.75;;
77280;SDS011;66339;47.262;17.144;2023-11-19T14:58:19;12.02;;;6.65;;
77280;SDS011;66339;47.262;17.144;2023-11-19T15:00:46;19.50;;;7.25;;
77280;SDS011;66339;47.262;17.144;2023-11-19T15:03:13;11.93;;;5.40;;
77280;SDS011;66339;47.262;17.144;2023-11-19T15:05:40;8.02;;;4.30;;
77280;SDS011;66339;47.262;17.144;2023-11-19T15:08:07;7.25;;;3.92;;
77280;SDS011;66339;47.262;17.144;2023-11-19T15:10:34;7.00;;;4.30;;
77280;SDS011;66339;47.262;17.144;2023-11-19T15:13:00;8.05;;;3.85;;
77280;SDS011;66339;47.262;17.144;2023-11-19T15:15:30;10.23;;;4.65;;
77280;SDS011;66339;47.262;17.144;2023-11-19T15:18:03;9.45;;;4.30;;
77280;SDS011;66339;47.262;17.144;2023-11-19T15:20:32;8.83;;;4.47;;
77280;SDS011;66339;47.262;17.144;2023-11-19T15:22:59;9.40;;;4.20;;
77280;SDS011;66339;47.262;17.144;2023-11-19T15:25:33;10.57;;;4.15;;
77280;SDS011;66339;47.262;17.144;2023-11-19T15:28:00;8.65;;;4.22;;
77280;SDS011;66339;47.262;17.144;2023-11-19T15:30:27;5.82;;;3.92;;
77280;SDS011;66339;47.262;17.144;2023-11-19T15:32:54;9.20;;;4.43;;
77280;SDS011;66339;47.262;17.144;2023-11-19T15:35:24;8.88;;;4.32;;
77280;SDS011;66339;47.262;17.144;2023-11-19T15:37:51;10.77;;;4.70;;
77280;SDS011;66339;47.262;17.144;2023-11-19T15:40:21;7.95;;;4.20;;
77280;SDS011;66339;47.262;17.144;2023-11-19T15:42:48;7.30;;;3.87;;
77280;SDS011;66339;47.262;17.144;2023-11-19T15:45:15;6.57;;;4.18;;
77280;SDS011;66339;47.262;17.144;2023-11-19T15:47:42;8.52;;;3.87;;
77280;SDS011;66339;47.262;17.144;2023-11-19T15:50:12;8.25;;;4.40;;
77280;SDS011;66339;47.262;17.144;2023-11-19T15:52:38;6.82;;;4.25;;
77280;SDS011;66339;47.262;17.144;2023-11-19T15:55:05;8.02;;;4.45;;
77280;SDS011;66339;47.262;17.144;2023-11-19T15:57:32;8.13;;;4.75;;
77280;SDS011;66339;47.262;17.144;2023-11-19T15:59:59;9.77;;;4.65;;
77280;SDS011;66339;47.262;17.144;2023-11-19T16:02:26;6.00;;;4.28;;
77280;SDS011;66339;47.262;17.144;2023-11-19T16:04:53;10.23;;;4.50;;
77280;SDS011;66339;47.262;17.144;2023-11-19T16:07:20;8.15;;;4.25;;
77280;SDS011;66339;47.262;17.144;2023-11-19T16:09:46;10.13;;;5.05;;
77280;SDS011;66339;47.262;17.144;2023-11-19T16:12:14;6.00;;;4.22;;
77280;SDS011;66339;47.262;17.144;2023-11-19T16:14:41;8.05;;;4.80;;
77280;SDS011;66339;47.262;17.144;2023-11-19T16:17:07;6.82;;;4.50;;
77280;SDS011;66339;47.262;17.144;2023-11-19T16:19:34;7.62;;;4.50;;
77280;SDS011;66339;47.262;17.144;2023-11-19T16:22:04;7.43;;;4.65;;
77280;SDS011;66339;47.262;17.144;2023-11-19T16:24:31;10.10;;;5.07;;
77280;SDS011;66339;47.262;17.144;2023-11-19T16:27:01;9.43;;;5.30;;
77280;SDS011;66339;47.262;17.144;2023-11-19T16:29:31;7.87;;;5.28;;
77280;SDS011;66339;47.262;17.144;2023-11-19T16:31:58;7.78;;;4.82;;
77280;SDS011;66339;47.262;17.144;2023-11-19T16:34:24;7.62;;;5.50;;
77280;SDS011;66339;47.262;17.144;2023-11-19T16:36:51;7.70;;;5.32;;
77280;SDS011;66339;47.262;17.144;2023-11-19T16:39:18;9.63;;;5.07;;
77280;SDS011;66339;47.262;17.144;2023-11-19T16:41:48;9.10;;;5.78;;
77280;SDS011;66339;47.262;17.144;2023-11-19T16:44:14;8.38;;;5.50;;
77280;SDS011;66339;47.262;17.144;2023-11-19T16:46:41;8.25;;;5.72;;